• Join FlightAware (Why Join?)
  • Login
  • US Flag 
Gobble Gobble! 
11:19AM EST


 

Airport Tracker/Info


-or-


 

Live Flight TrackerFlight Track Log ✈ ASA51 ✈ 11-Feb-2014 ✈ PABR / BRW - PASC / SCC

Flight Track Log - Related Links

Times and Time Zones

All times are in EST time to prevent confusion due to time zone crossing. See the ASA51 flight status page for this flight to view local times or setup timezone preferences in your user account.

Time Position Orientation Groundspeed Altitude Reporting Facility
EST Latitude Longitude Course Direction KTS MPH feet Rate Location/Type
12:12AM 71.2000 -156.5333 102° East 310 357 11,200  Level Anchorage Center
12:13AM 71.1833 -156.2500 100° East 350 403 14,800 3,600 Climbing Anchorage Center
12:14AM 71.1667 -155.9500 100° East 350 403 18,500 3,180 Climbing Anchorage Center
12:15AM 71.0672 -154.9463 108° East  Level FlightAware Approximate
12:15AM 71.1500 -155.6333 99° East 370 426 21,300  Level Anchorage Center
12:16AM 71.0339 -154.6319 108° East  Level FlightAware Approximate
12:16AM 71.1167 -155.3167 108° East 400 460 23,800  Level Anchorage Center
12:17AM 71.0833 -154.9833 107° East 420 483 26,100 1,560 Climbing Anchorage Center
12:18AM 71.0333 -154.6333 114° Southeast 430 495 27,000 420 Climbing Anchorage Center
12:19AM 71.0000 -154.3000 107° East 430 495 27,000  Level Anchorage Center
12:20AM 70.9667 -153.9667 107° East 420 483 27,000  Level Anchorage Center
12:21AM 70.9167 -153.6333 115° Southeast 420 483 27,000  Level Anchorage Center
12:22AM 70.8833 -153.3000 107° East 420 483 27,000  Level Anchorage Center
12:23AM 70.8333 -152.9500 113° Southeast 420 483 27,000  Level Anchorage Center
12:24AM 70.8000 -152.6167 107° East 420 483 27,000  Level Anchorage Center
12:25AM 70.7500 -152.2833 114° Southeast 430 495 27,000  Level Anchorage Center
12:26AM 70.7167 -151.9667 108° East 420 483 27,000  Level Anchorage Center
12:27AM 70.6667 -151.6333 114° Southeast 430 495 27,000  Level Anchorage Center
12:28AM 70.6167 -151.3000 114° Southeast 430 495 27,000  Level Anchorage Center
12:29AM 70.5833 -150.9667 107° East 430 495 27,000 -840 Level Anchorage Center
12:30AM 70.5333 -150.6500 115° Southeast 410 472 25,400 -2,040 Descending Anchorage Center
12:31AM 70.4833 -150.3500 116° Southeast 390 449 23,000 -2,340 Descending Anchorage Center
12:32AM 70.4500 -150.0667 109° East 370 426 20,700 -2,280 Descending Anchorage Center
12:33AM 70.4000 -149.8000 119° Southeast 360 414 18,500 -2,100 Descending Anchorage Center
12:34AM 70.3667 -149.5333 110° East 340 391 16,500 -2,040 Descending Anchorage Center
12:35AM 70.3333 -149.2833 112° Southeast 340 391 14,400 -2,040 Descending Anchorage Center
12:36AM 70.2833 -149.0500 122° Southeast 310 357 12,400 -1,800 Descending Anchorage Center
12:37AM 70.2500 -148.8167 113° Southeast 290 334 10,800 -1,620 Descending Anchorage Center
12:38AM 70.2167 -148.6167 116° Southeast 280 322 9,200 -1,620 Descending Anchorage Center
12:40AM 70.2167 -148.1667 90° East 280 322 6,000 -1,320 Descending Anchorage Center
12:41AM 70.2500 -148.0167 57° Northeast 240 276 5,300 -780 Descending Anchorage Center
12:42AM 70.3000 -147.9167 34° Northeast 240 276 4,500 -840 Descending Anchorage Center
12:43AM 70.2500 -147.8500 156° South 210 242 3,700 -720 Descending Anchorage Center
12:44AM 70.2333 -147.9833 250° West 210 242 3,100 -600 Descending Anchorage Center
12:45AM 70.2167 -148.1333 252° West 170 196 2,500 -660 Descending Anchorage Center
12:46AM 70.2000 -148.2500 247° West 150 173 1,800 -720 Descending Anchorage Center
12:47AM 70.2000 -148.3333 270° West 110 127 1,100 -900 Descending Anchorage Center
12:48AM 70.1833 -148.4333 244° Southwest 110 127 100 -1,020 Descending Anchorage Center